createdAt,value
2017-09-20T00:01:06.115Z,48.63
2017-09-20T00:03:34.455Z,51.23
2017-09-20T00:06:02.842Z,53.60
2017-09-20T00:08:31.160Z,56.37
2017-09-20T00:10:59.477Z,49.00
2017-09-20T00:13:27.779Z,49.50
2017-09-20T00:15:56.094Z,53.37
2017-09-20T00:18:24.396Z,53.63
2017-09-20T00:20:53.478Z,54.40
2017-09-20T00:23:22.550Z,56.67
2017-09-20T00:25:50.887Z,55.83
2017-09-20T00:28:19.203Z,56.27
2017-09-20T00:30:47.510Z,51.57
2017-09-20T00:33:16.605Z,53.43
2017-09-20T00:35:45.674Z,51.17
2017-09-20T00:38:13.994Z,52.17
2017-09-20T00:40:42.309Z,51.83
2017-09-20T00:43:10.632Z,52.00
2017-09-20T00:45:38.955Z,50.43
2017-09-20T00:48:07.287Z,51.30
2017-09-20T00:50:36.367Z,45.00
2017-09-20T00:53:04.703Z,46.57
2017-09-20T00:55:33.073Z,45.77
2017-09-20T00:58:01.381Z,50.50
2017-09-20T01:00:29.702Z,43.87
2017-09-20T01:02:58.787Z,47.27
2017-09-20T01:05:27.867Z,44.87
2017-09-20T01:07:56.183Z,46.10
2017-09-20T01:10:24.513Z,44.67
2017-09-20T01:12:52.831Z,47.30
2017-09-20T01:15:21.166Z,42.40
2017-09-20T01:17:49.503Z,43.60
2017-09-20T01:20:35.634Z,47.60
2017-09-20T01:23:21.653Z,48.83
2017-09-20T01:25:49.985Z,43.77
2017-09-20T01:28:18.300Z,45.63
2017-09-20T01:30:46.618Z,44.67
2017-09-20T01:33:14.941Z,48.60
2017-09-20T01:35:43.258Z,47.93
2017-09-20T01:38:12.357Z,47.23
2017-09-20T01:40:40.677Z,47.80
2017-09-20T01:43:09.011Z,50.23
2017-09-20T01:45:38.082Z,48.37
2017-09-20T01:48:06.451Z,48.17
2017-09-20T01:50:34.761Z,50.23
2017-09-20T01:53:03.838Z,45.47
2017-09-20T01:55:32.924Z,45.07
2017-09-20T01:58:01.254Z,44.07
2017-09-20T02:00:29.577Z,48.10
2017-09-20T02:02:57.894Z,47.37
2017-09-20T02:05:26.253Z,48.33
2017-09-20T02:07:55.328Z,46.70
2017-09-20T02:10:23.656Z,48.07
2017-09-20T02:12:51.976Z,43.57
2017-09-20T02:15:20.415Z,46.50
2017-09-20T02:17:48.739Z,43.07
2017-09-20T02:20:17.059Z,46.47
2017-09-20T02:22:45.382Z,43.47
2017-09-20T02:25:13.694Z,44.20
2017-09-20T02:27:42.785Z,46.43
2017-09-20T02:30:11.859Z,45.00
2017-09-20T02:32:40.183Z,48.77
2017-09-20T02:35:08.504Z,46.43
2017-09-20T02:37:36.818Z,49.40
2017-09-20T02:40:05.905Z,44.20
2017-09-20T02:42:35.042Z,46.90
2017-09-20T02:45:03.358Z,42.30
2017-09-20T02:47:31.693Z,45.20
2017-09-20T02:50:00.042Z,45.00
2017-09-20T02:52:29.114Z,49.87
2017-09-20T02:54:57.445Z,45.97
2017-09-20T02:57:25.762Z,49.33
2017-09-20T02:59:54.090Z,46.93
2017-09-20T03:02:22.402Z,47.03
2017-09-20T03:04:50.714Z,45.50
2017-09-20T03:07:19.789Z,49.40
2017-09-20T03:09:48.107Z,52.27
2017-09-20T03:12:16.433Z,49.17
2017-09-20T03:14:44.753Z,57.40
2017-09-20T03:17:13.833Z,48.77
2017-09-20T03:19:42.178Z,53.40
2017-09-20T03:22:10.479Z,48.47
2017-09-20T03:24:38.786Z,49.00
2017-09-20T03:27:07.871Z,46.17
2017-09-20T03:29:36.947Z,49.50
2017-09-20T03:32:05.265Z,51.33
2017-09-20T03:34:33.590Z,44.70
2017-09-20T03:37:02.643Z,54.00
2017-09-20T03:39:30.975Z,53.17
2017-09-20T03:41:59.293Z,51.27
2017-09-20T03:44:27.634Z,52.80
2017-09-20T03:46:56.667Z,48.83
2017-09-20T03:49:24.975Z,49.23
2017-09-20T03:51:53.317Z,54.00
2017-09-20T03:54:21.640Z,50.70
2017-09-20T03:56:49.949Z,49.50
2017-09-20T03:59:19.051Z,48.70
2017-09-20T04:01:48.126Z,55.83
2017-09-20T04:04:16.456Z,49.80
2017-09-20T04:06:44.762Z,46.47
2017-09-20T04:09:13.841Z,49.60
2017-09-20T04:11:42.161Z,48.17
2017-09-20T04:14:11.298Z,49.37
2017-09-20T04:16:39.612Z,51.53
2017-09-20T04:19:07.948Z,46.30
2017-09-20T04:21:36.288Z,48.70
2017-09-20T04:24:05.434Z,49.83
2017-09-20T04:26:33.746Z,47.00
2017-09-20T04:29:02.062Z,50.70
2017-09-20T04:31:30.393Z,56.80
2017-09-20T04:33:58.709Z,50.77
2017-09-20T04:36:27.790Z,50.07
2017-09-20T04:38:56.097Z,51.20
2017-09-20T04:41:24.427Z,51.47
2017-09-20T04:43:52.742Z,54.20
2017-09-20T04:46:21.103Z,59.43
2017-09-20T04:48:50.225Z,54.80
2017-09-20T04:51:18.540Z,51.93
2017-09-20T04:53:46.870Z,51.20
2017-09-20T04:56:15.957Z,50.80
2017-09-20T04:58:45.037Z,51.80
2017-09-20T05:01:13.345Z,52.43
2017-09-20T05:03:41.660Z,54.90
2017-09-20T05:06:09.978Z,54.87
2017-09-20T05:08:39.107Z,55.63
2017-09-20T05:11:07.420Z,56.47
2017-09-20T05:13:35.734Z,58.67
2017-09-20T05:16:04.822Z,58.10
2017-09-20T05:18:33.130Z,55.40
2017-09-20T05:21:01.463Z,53.10
2017-09-20T05:23:29.783Z,51.00
2017-09-20T05:25:58.106Z,51.07
2017-09-20T05:28:26.427Z,49.80
2017-09-20T05:30:54.780Z,52.00
2017-09-20T05:33:23.118Z,52.20
2017-09-20T05:35:51.426Z,51.37
2017-09-20T05:38:19.747Z,49.90
2017-09-20T05:40:48.090Z,47.27
2017-09-20T05:43:16.420Z,47.43
2017-09-20T05:45:44.742Z,47.03
2017-09-20T05:48:13.053Z,44.53
2017-09-20T05:50:41.378Z,44.30
2017-09-20T05:53:09.730Z,43.73
2017-09-20T05:55:38.043Z,45.20
2017-09-20T05:58:06.358Z,41.90
2017-09-20T06:00:35.447Z,41.43
2017-09-20T06:03:04.541Z,42.57
2017-09-20T06:05:33.621Z,44.83
2017-09-20T06:08:01.929Z,39.90
2017-09-20T06:10:30.249Z,39.50
2017-09-20T06:12:58.549Z,46.40
2017-09-20T06:15:26.884Z,43.30
2017-09-20T06:17:55.200Z,42.80
2017-09-20T06:20:23.538Z,42.90
2017-09-20T06:22:51.849Z,41.23
2017-09-20T06:25:20.162Z,45.77
2017-09-20T06:27:48.485Z,42.50
2017-09-20T06:30:16.794Z,40.20
2017-09-20T06:32:45.115Z,42.53
2017-09-20T06:35:13.428Z,37.77
2017-09-20T06:37:41.746Z,38.60
2017-09-20T06:40:10.822Z,41.30
2017-09-20T06:42:39.170Z,39.97
2017-09-20T06:45:07.474Z,37.90
2017-09-20T06:47:35.802Z,37.53
2017-09-20T06:50:04.119Z,36.50
2017-09-20T06:52:32.425Z,41.80
2017-09-20T06:55:01.515Z,40.17
2017-09-20T06:57:30.591Z,37.10
2017-09-20T06:59:58.909Z,38.97
2017-09-20T07:02:27.222Z,36.57
2017-09-20T07:04:55.542Z,41.00
2017-09-20T07:07:24.613Z,34.70
2017-09-20T07:09:52.925Z,37.97
2017-09-20T07:12:22.015Z,40.97
2017-09-20T07:14:51.089Z,36.30
2017-09-20T07:17:19.415Z,37.53
2017-09-20T07:19:47.725Z,36.73
2017-09-20T07:22:16.837Z,37.73
2017-09-20T07:24:45.151Z,35.70
2017-09-20T07:27:13.498Z,34.90
2017-09-20T07:29:42.573Z,34.40
2017-09-20T07:32:10.891Z,34.57
2017-09-20T07:34:39.978Z,32.30
2017-09-20T07:37:09.056Z,31.50
2017-09-20T07:39:37.380Z,29.10
2017-09-20T07:42:05.686Z,27.97
2017-09-20T07:44:34.002Z,26.37
2017-09-20T07:47:03.085Z,24.80
2017-09-20T07:49:31.407Z,22.50
2017-09-20T07:51:59.718Z,22.47
2017-09-20T07:54:28.030Z,19.20
2017-09-20T07:56:57.128Z,20.13
2017-09-20T07:59:26.207Z,18.67
2017-09-20T08:01:55.300Z,18.80
2017-09-20T08:04:23.635Z,15.37
2017-09-20T08:06:51.965Z,14.37
2017-09-20T08:09:21.037Z,13.60
2017-09-20T08:11:49.368Z,12.47
2017-09-20T08:14:17.686Z,14.33
2017-09-20T08:16:46.029Z,16.03
2017-09-20T08:19:14.342Z,15.90
2017-09-20T08:21:42.647Z,13.57
2017-09-20T08:24:10.974Z,14.90
2017-09-20T08:26:39.277Z,11.60
2017-09-20T08:29:07.603Z,11.63
2017-09-20T08:31:35.919Z,10.63
2017-09-20T08:34:04.235Z,11.23
2017-09-20T08:36:33.314Z,11.63
2017-09-20T08:39:01.662Z,11.40
2017-09-20T08:41:29.970Z,10.50
2017-09-20T08:43:58.289Z,10.60
2017-09-20T08:46:26.605Z,9.00
2017-09-20T08:48:54.910Z,10.10
2017-09-20T08:51:24.730Z,10.80
2017-09-20T08:53:53.148Z,8.40
2017-09-20T08:56:21.469Z,8.00
2017-09-20T08:58:49.775Z,7.33
2017-09-20T09:01:18.851Z,7.97
2017-09-20T09:03:47.159Z,6.30
2017-09-20T09:06:15.478Z,6.30
2017-09-20T09:08:43.782Z,6.77
2017-09-20T09:11:12.118Z,6.43
2017-09-20T09:13:40.434Z,6.57
2017-09-20T09:16:08.745Z,5.43
2017-09-20T09:18:37.058Z,4.97
2017-09-20T09:21:05.364Z,3.90
2017-09-20T09:23:33.688Z,5.00
2017-09-20T09:26:01.986Z,5.10
2017-09-20T09:28:30.298Z,4.30
2017-09-20T09:30:58.610Z,4.50
2017-09-20T09:33:26.923Z,6.13
2017-09-20T09:35:55.223Z,4.73
2017-09-20T09:38:23.555Z,2.87
2017-09-20T09:40:51.858Z,2.40
2017-09-20T09:43:20.166Z,1.70
2017-09-20T09:45:48.473Z,2.30
2017-09-20T09:48:16.770Z,3.20
2017-09-20T09:50:45.093Z,2.83
2017-09-20T09:53:14.507Z,2.50
2017-09-20T09:55:43.596Z,3.27
2017-09-20T09:58:11.901Z,2.47
2017-09-20T10:00:40.225Z,2.47
2017-09-20T10:03:08.531Z,2.90
2017-09-20T10:05:37.600Z,2.30
2017-09-20T10:08:05.938Z,2.80
2017-09-20T10:10:34.243Z,2.07
2017-09-20T10:13:02.565Z,3.83
2017-09-20T10:15:31.635Z,3.50
2017-09-20T10:17:59.950Z,3.63
2017-09-20T10:20:28.275Z,3.17
2017-09-20T10:22:56.583Z,3.43
2017-09-20T10:25:24.883Z,3.10
2017-09-20T10:27:53.190Z,3.00
2017-09-20T10:30:21.594Z,3.40
2017-09-20T10:32:49.926Z,3.40
2017-09-20T10:35:18.256Z,3.00
2017-09-20T10:37:46.581Z,2.70
2017-09-20T10:40:14.886Z,3.27
2017-09-20T10:42:43.189Z,3.23
2017-09-20T10:45:11.506Z,2.93
2017-09-20T10:47:39.814Z,2.80
2017-09-20T10:50:08.130Z,2.80
2017-09-20T10:52:36.450Z,3.30
2017-09-20T10:55:04.758Z,3.30
2017-09-20T10:57:33.076Z,3.80
2017-09-20T11:00:02.199Z,3.30
2017-09-20T11:02:30.498Z,3.30
2017-09-20T11:04:58.798Z,3.20
2017-09-20T11:07:27.108Z,2.10
2017-09-20T11:09:56.196Z,2.43
2017-09-20T11:12:32.408Z,2.00
2017-09-20T11:14:59.984Z,2.10
2017-09-20T11:17:28.297Z,2.60
2017-09-20T11:19:57.362Z,2.50
2017-09-20T11:22:25.734Z,3.00
2017-09-20T11:24:54.043Z,3.30
2017-09-20T11:27:23.110Z,2.47
2017-09-20T11:29:51.461Z,3.03
2017-09-20T11:32:19.772Z,2.13
2017-09-20T11:34:52.229Z,2.30
2017-09-20T11:37:20.542Z,2.60
2017-09-20T11:39:49.628Z,2.47
2017-09-20T11:42:17.945Z,3.53
2017-09-20T11:44:46.258Z,2.50
2017-09-20T11:47:14.569Z,2.33
2017-09-20T11:49:43.658Z,2.40
2017-09-20T11:52:11.958Z,2.20
2017-09-20T11:54:41.056Z,2.47
2017-09-20T11:57:10.130Z,2.80
2017-09-20T11:59:39.205Z,2.13
2017-09-20T12:02:07.521Z,2.40
2017-09-20T12:04:36.601Z,1.67
2017-09-20T12:07:05.677Z,1.30
2017-09-20T12:09:33.978Z,1.70
2017-09-20T12:12:03.066Z,1.37
2017-09-20T12:14:31.380Z,1.27
2017-09-20T12:16:59.716Z,1.50
2017-09-20T12:19:28.019Z,2.10
2017-09-20T12:21:56.360Z,1.30
2017-09-20T12:24:24.666Z,1.93
2017-09-20T12:26:53.737Z,1.20
2017-09-20T12:29:22.057Z,1.50
2017-09-20T12:31:50.362Z,1.13
2017-09-20T12:34:18.671Z,1.23
2017-09-20T12:36:46.977Z,1.50
2017-09-20T12:39:15.301Z,1.37
2017-09-20T12:41:43.601Z,1.20
2017-09-20T12:44:11.913Z,1.70
2017-09-20T12:46:40.204Z,1.33
2017-09-20T12:49:08.557Z,1.50
2017-09-20T12:51:37.626Z,1.57
2017-09-20T12:54:05.927Z,1.40
2017-09-20T12:56:35.018Z,1.60
2017-09-20T12:59:04.092Z,1.80
2017-09-20T13:01:32.393Z,2.80
2017-09-20T13:04:01.464Z,1.50
2017-09-20T13:06:29.787Z,2.30
2017-09-20T13:08:58.081Z,2.47
2017-09-20T13:11:26.409Z,2.33
2017-09-20T13:13:54.714Z,1.70
2017-09-20T13:16:23.012Z,1.47
2017-09-20T13:18:51.333Z,1.00
2017-09-20T13:21:19.628Z,1.00
2017-09-20T13:23:48.704Z,0.90
2017-09-20T13:26:17.001Z,1.27
2017-09-20T13:28:46.078Z,1.00
2017-09-20T13:31:14.371Z,1.27
2017-09-20T13:33:43.442Z,1.53
2017-09-20T13:36:11.780Z,1.33
2017-09-20T13:38:40.101Z,1.53
2017-09-20T13:41:08.409Z,2.00
2017-09-20T13:43:36.709Z,1.63
2017-09-20T13:46:05.014Z,2.03
2017-09-20T13:48:33.320Z,2.57
2017-09-20T13:51:02.397Z,2.30
2017-09-20T13:53:30.691Z,1.53
2017-09-20T13:55:58.992Z,1.70
2017-09-20T13:58:27.286Z,1.80
2017-09-20T14:00:55.608Z,2.03
2017-09-20T14:03:23.905Z,1.70
2017-09-20T14:05:52.969Z,1.80
2017-09-20T14:08:21.264Z,2.30
2017-09-20T14:10:49.573Z,1.57
2017-09-20T14:13:17.886Z,1.93
2017-09-20T14:15:47.062Z,1.50
2017-09-20T14:18:15.372Z,1.77
2017-09-20T14:20:43.673Z,1.57
2017-09-20T14:23:11.997Z,1.50
2017-09-20T14:25:40.289Z,1.63
2017-09-20T14:28:08.587Z,1.63
2017-09-20T14:30:36.889Z,1.40
2017-09-20T14:33:05.964Z,1.70
2017-09-20T14:35:34.275Z,1.43
2017-09-20T14:38:02.619Z,2.00
2017-09-20T14:40:30.924Z,1.60
2017-09-20T14:42:59.995Z,1.70
2017-09-20T14:45:28.300Z,1.80
2017-09-20T14:47:57.368Z,2.03
2017-09-20T14:50:25.684Z,1.80
2017-09-20T14:52:53.980Z,2.00
2017-09-20T14:55:22.292Z,1.70
2017-09-20T14:57:50.601Z,2.70
2017-09-20T15:00:19.706Z,1.73
2017-09-20T15:02:48.023Z,1.87
2017-09-20T15:05:16.333Z,1.50
2017-09-20T15:07:44.644Z,1.83
2017-09-20T15:10:12.958Z,2.30
2017-09-20T15:12:41.269Z,2.60
2017-09-20T15:15:10.340Z,2.17
2017-09-20T15:17:38.641Z,3.10
2017-09-20T15:20:07.702Z,2.10
2017-09-20T15:22:36.029Z,1.97
2017-09-20T15:25:05.085Z,1.50
2017-09-20T15:27:33.396Z,1.30
2017-09-20T15:30:02.477Z,1.30
2017-09-20T15:32:30.768Z,1.17
2017-09-20T15:34:59.846Z,1.60
2017-09-20T15:37:28.146Z,1.13
2017-09-20T15:39:56.465Z,1.40
2017-09-20T15:42:24.756Z,2.50
2017-09-20T15:44:53.057Z,2.77
2017-09-20T15:47:21.397Z,2.73
2017-09-20T15:49:49.701Z,2.50
2017-09-20T15:52:17.989Z,2.33
2017-09-20T15:54:46.325Z,2.03
2017-09-20T15:57:14.630Z,1.87
2017-09-20T15:59:42.932Z,1.70
2017-09-20T16:02:12.002Z,2.00
2017-09-20T16:04:40.296Z,1.00
2017-09-20T16:07:09.381Z,2.73
2017-09-20T16:09:37.678Z,3.93
2017-09-20T16:12:06.009Z,4.23
2017-09-20T16:14:35.087Z,4.90
2017-09-20T16:17:03.458Z,4.73
2017-09-20T16:19:31.761Z,4.40
2017-09-20T16:22:00.089Z,4.73
2017-09-20T16:24:28.403Z,5.10
2017-09-20T16:26:56.709Z,4.73
2017-09-20T16:29:25.023Z,5.27
2017-09-20T16:31:53.324Z,11.50
2017-09-20T16:34:21.641Z,5.20
2017-09-20T16:36:49.942Z,5.70
2017-09-20T16:39:19.018Z,5.60
2017-09-20T16:41:47.321Z,5.90
2017-09-20T16:44:16.490Z,6.83
2017-09-20T16:46:44.785Z,6.07
2017-09-20T16:49:13.860Z,5.80
2017-09-20T16:51:42.156Z,6.47
2017-09-20T16:54:11.261Z,6.37
2017-09-20T16:56:40.328Z,6.30
2017-09-20T16:59:08.633Z,6.40
2017-09-20T17:01:37.701Z,7.87
2017-09-20T17:04:06.001Z,7.00
2017-09-20T17:06:35.072Z,7.43
2017-09-20T17:09:03.369Z,7.23
2017-09-20T17:11:32.441Z,6.73
2017-09-20T17:14:00.742Z,7.10
2017-09-20T17:16:29.840Z,6.57
2017-09-20T17:18:58.910Z,6.67
2017-09-20T17:21:27.250Z,7.67
2017-09-20T17:23:55.557Z,8.20
2017-09-20T17:26:23.856Z,8.20
2017-09-20T17:28:52.949Z,9.00
2017-09-20T17:31:22.046Z,8.20
2017-09-20T17:33:51.395Z,8.37
2017-09-20T17:36:19.729Z,9.00
2017-09-20T17:38:48.809Z,8.53
2017-09-20T17:41:17.115Z,8.17
2017-09-20T17:43:46.221Z,9.03
2017-09-20T17:46:14.533Z,8.70
2017-09-20T17:48:42.836Z,8.87
2017-09-20T17:51:11.152Z,8.60
2017-09-20T17:53:39.461Z,9.30
2017-09-20T17:56:07.781Z,8.57
2017-09-20T17:58:36.860Z,9.20
2017-09-20T18:01:05.180Z,8.77
2017-09-20T18:03:33.493Z,7.00
2017-09-20T18:06:01.802Z,7.40
2017-09-20T18:08:30.106Z,7.80
2017-09-20T18:10:58.440Z,8.73
2017-09-20T18:13:26.737Z,8.67
2017-09-20T18:15:55.053Z,8.57
2017-09-20T18:18:23.377Z,8.53
2017-09-20T18:20:51.675Z,9.37
2017-09-20T18:23:20.752Z,8.17
2017-09-20T18:25:49.080Z,9.20
2017-09-20T18:28:17.389Z,8.27
2017-09-20T18:30:45.685Z,8.73
2017-09-20T18:33:14.012Z,8.57
2017-09-20T18:35:42.353Z,9.47
2017-09-20T18:38:10.664Z,13.20
2017-09-20T18:40:38.965Z,15.73
2017-09-20T18:43:07.347Z,15.40
2017-09-20T18:45:35.656Z,13.90
2017-09-20T18:48:03.975Z,10.37
2017-09-20T18:50:32.294Z,11.23
2017-09-20T18:53:00.604Z,10.97
2017-09-20T18:55:29.676Z,11.77
2017-09-20T18:57:57.998Z,10.50
2017-09-20T19:00:26.315Z,10.20
2017-09-20T19:02:54.673Z,10.97
2017-09-20T19:05:22.976Z,10.97
2017-09-20T19:07:51.460Z,9.93
2017-09-20T19:10:19.815Z,10.43
2017-09-20T19:12:48.173Z,10.93
2017-09-20T19:15:16.594Z,12.20
2017-09-20T19:17:44.907Z,12.17
2017-09-20T19:20:13.985Z,12.43
2017-09-20T19:22:42.293Z,13.53
2017-09-20T19:25:10.605Z,13.20
2017-09-20T19:27:38.917Z,13.80
2017-09-20T19:30:07.277Z,13.83
2017-09-20T19:32:35.653Z,13.77
2017-09-20T19:35:04.733Z,13.90
2017-09-20T19:37:33.045Z,13.00
2017-09-20T19:40:01.351Z,14.33
2017-09-20T19:42:29.672Z,13.07
2017-09-20T19:44:58.747Z,14.50
2017-09-20T19:47:27.068Z,14.17
2017-09-20T19:49:55.376Z,13.60
2017-09-20T19:52:23.690Z,14.70
2017-09-20T19:54:52.000Z,12.80
2017-09-20T19:57:20.312Z,13.97
2017-09-20T19:59:48.614Z,15.83
2017-09-20T20:02:17.000Z,13.10
2017-09-20T20:04:46.089Z,15.37
2017-09-20T20:07:14.596Z,14.00
2017-09-20T20:09:42.975Z,13.67
2017-09-20T20:12:11.514Z,13.13
2017-09-20T20:14:40.038Z,15.20
2017-09-20T20:17:08.396Z,13.77
2017-09-20T20:19:36.795Z,13.80
2017-09-20T20:22:05.306Z,13.90
2017-09-20T20:24:34.602Z,13.97
2017-09-20T20:27:03.096Z,14.00
2017-09-20T20:29:32.371Z,13.40
2017-09-20T20:32:00.881Z,13.77
2017-09-20T20:34:29.279Z,14.20
2017-09-20T20:36:57.667Z,14.17
2017-09-20T20:39:26.043Z,13.80
2017-09-20T20:41:54.569Z,13.83
2017-09-20T20:44:23.093Z,13.40
2017-09-20T20:46:51.468Z,13.23
2017-09-20T20:49:19.985Z,14.40
2017-09-20T20:51:48.535Z,15.33
2017-09-20T20:54:16.896Z,12.70
2017-09-20T20:56:46.094Z,15.40
2017-09-20T20:59:15.231Z,14.97
2017-09-20T21:01:43.741Z,13.17
2017-09-20T21:04:12.288Z,14.40
2017-09-20T21:06:40.654Z,13.93
2017-09-20T21:09:09.035Z,14.00
2017-09-20T21:11:37.529Z,13.90
2017-09-20T21:14:05.905Z,14.67
2017-09-20T21:16:34.261Z,14.40
2017-09-20T21:19:02.677Z,12.47
2017-09-20T21:21:30.982Z,12.40
2017-09-20T21:23:59.288Z,14.70
2017-09-20T21:26:27.814Z,13.70
2017-09-20T21:28:56.128Z,13.20
2017-09-20T21:31:25.273Z,13.67
2017-09-20T21:33:53.645Z,14.40
2017-09-20T21:36:22.026Z,13.20
2017-09-20T21:38:50.330Z,13.50
2017-09-20T21:41:18.718Z,13.90
2017-09-20T21:43:47.033Z,14.03
2017-09-20T21:46:16.181Z,15.10
2017-09-20T21:48:44.539Z,14.90
2017-09-20T21:51:12.890Z,14.50
2017-09-20T21:53:41.977Z,14.27
2017-09-20T21:56:11.057Z,13.97
2017-09-20T21:58:39.394Z,13.83
2017-09-20T22:01:07.720Z,14.00
2017-09-20T22:03:36.822Z,13.70
2017-09-20T22:06:05.901Z,13.00
2017-09-20T22:08:34.237Z,14.47
2017-09-20T22:11:02.541Z,12.50
2017-09-20T22:13:30.882Z,15.87
2017-09-20T22:16:16.966Z,15.27
2017-09-20T22:19:03.063Z,14.37
2017-09-20T22:21:49.153Z,15.20
2017-09-20T22:24:35.268Z,14.97
2017-09-20T22:27:03.586Z,16.20
2017-09-20T22:29:31.899Z,15.20
2017-09-20T22:32:00.221Z,14.97
2017-09-20T22:34:28.548Z,15.37
2017-09-20T22:36:57.640Z,13.77
2017-09-20T22:39:25.950Z,14.07
2017-09-20T22:41:54.273Z,15.30
2017-09-20T22:44:22.573Z,15.77
2017-09-20T22:46:50.889Z,15.97
2017-09-20T22:49:19.211Z,14.43
2017-09-20T22:51:48.305Z,15.47
2017-09-20T22:54:16.618Z,14.27
2017-09-20T22:56:44.926Z,16.37
2017-09-20T22:59:13.254Z,16.83
2017-09-20T23:01:42.329Z,14.70
2017-09-20T23:04:10.648Z,16.27
2017-09-20T23:06:38.958Z,15.47
2017-09-20T23:09:07.278Z,16.23
2017-09-20T23:11:35.607Z,14.20
2017-09-20T23:14:03.942Z,14.63
2017-09-20T23:16:32.274Z,13.93
2017-09-20T23:19:00.616Z,16.37
2017-09-20T23:21:28.923Z,16.30
2017-09-20T23:23:57.244Z,14.50
2017-09-20T23:26:26.327Z,15.87
2017-09-20T23:28:55.415Z,16.20
2017-09-20T23:31:23.737Z,15.40
2017-09-20T23:33:52.049Z,15.10
2017-09-20T23:36:20.386Z,17.30
2017-09-20T23:38:48.778Z,16.10
2017-09-20T23:41:17.100Z,15.67
2017-09-20T23:43:45.420Z,15.40
2017-09-20T23:46:13.760Z,16.60
2017-09-20T23:48:42.079Z,16.30
2017-09-20T23:51:10.396Z,17.83
2017-09-20T23:53:38.719Z,16.00
2017-09-20T23:56:07.828Z,16.27
2017-09-20T23:58:36.142Z,17.30
